Bookmark and Share
Track history (hours):
 

Jupiter Spirit

Last reported at 2014-Apr-24 13:28 UTC. Time now 2014-Apr-24 22:20 UTC.
Position N 36°13' E 141°03'.

Length 183 m; draft 8 m.

Type: Cargo ship. MMSI: 636015173.

NotesDate/timePositionNaut miles runAvg speedWind from/ knotsBaromVisibWave heightAir tempDewpointWater temp
2014-Apr-24 13:28N 36°13' E 141°03'61 2.4
2014-Apr-23 12:11N 35°14' E 140°45'1014.4
2014-Apr-23 11:31N 35°08' E 140°35'1414.4
2014-Apr-23 10:32N 35°01' E 140°20'1414.3
2014-Apr-23 09:33N 34°53' E 140°06'1413.6
2014-Apr-23 08:33N 34°50' E 139°50'1111.3
2014-Apr-23 07:33N 34°59' E 139°41'1413.8
2014-Apr-23 06:33N 35°12' E 139°46'1212.2
2014-Apr-23 05:33N 35°24' E 139°42'5 4.6
2014-Apr-23 04:31N 35°28' E 139°41'0 0.0
2014-Apr-23 03:31N 35°28' E 139°41'0 0.0
2014-Apr-23 02:31N 35°28' E 139°41'0 0.0
2014-Apr-23 01:31N 35°28' E 139°41'0 0.0
2014-Apr-23 00:31N 35°28' E 139°41'0 0.0
2014-Apr-22 23:31N 35°28' E 139°41'0 0.1
2014-Apr-22 22:33N 35°28' E 139°41'5 5.0
2014-Apr-22 21:33N 35°26' E 139°46'1110.5
2014-Apr-22 20:33N 35°15' E 139°47'9 8.5
2014-Apr-22 19:33N 35°07' E 139°46'7 7.2
2014-Apr-22 18:33N 35°00' E 139°43'9 9.2
2014-Apr-22 17:33N 34°51' E 139°44'10 9.5
2014-Apr-22 16:31N 34°41' E 139°41'9 4.8
2014-Apr-22 14:32N 34°45' E 139°52'9 6.8
2014-Apr-22 13:12N 34°47' E 140°03'5 7.2
2014-Apr-22 12:32N 34°50' E 140°07'7 7.1
2014-Apr-22 11:33N 34°54' E 140°14'9 8.5
2014-Apr-22 10:27N 34°59' E 140°24'  

Dump ship's entire track history

sailing weather and tide predictions

Jupiter Spirit — A8ZC2 — position and weather